sensor_id;sensor_type;location;lat;lon;timestamp;pressure;altitude;pressure_sealevel;temperature;humidity
64886;BME280;51514;52.206;5.114;2023-05-23T00:01:29;102018.94;;;15.99;84.38
64886;BME280;51514;52.206;5.114;2023-05-23T00:03:57;102024.69;;;15.96;84.69
64886;BME280;51514;52.206;5.114;2023-05-23T00:06:22;102026.56;;;15.95;84.86
64886;BME280;51514;52.206;5.114;2023-05-23T00:08:48;102029.41;;;15.86;84.61
64886;BME280;51514;52.206;5.114;2023-05-23T00:11:14;102022.75;;;15.80;84.92
64886;BME280;51514;52.206;5.114;2023-05-23T00:13:40;102031.09;;;15.79;84.86
64886;BME280;51514;52.206;5.114;2023-05-23T00:16:06;102027.31;;;15.72;84.98
64886;BME280;51514;52.206;5.114;2023-05-23T00:18:35;102036.63;;;15.69;84.94
64886;BME280;51514;52.206;5.114;2023-05-23T00:21:01;102033.25;;;15.67;85.06
64886;BME280;51514;52.206;5.114;2023-05-23T00:23:26;102029.00;;;15.64;85.34
64886;BME280;51514;52.206;5.114;2023-05-23T00:25:54;102035.44;;;15.63;85.62
64886;BME280;51514;52.206;5.114;2023-05-23T00:28:21;102044.13;;;15.67;85.94
64886;BME280;51514;52.206;5.114;2023-05-23T00:30:46;102041.41;;;15.67;86.32
64886;BME280;51514;52.206;5.114;2023-05-23T00:33:14;102050.44;;;15.67;86.35
64886;BME280;51514;52.206;5.114;2023-05-23T00:35:41;102048.34;;;15.61;86.80
64886;BME280;51514;52.206;5.114;2023-05-23T00:38:06;102037.16;;;15.64;86.55
64886;BME280;51514;52.206;5.114;2023-05-23T00:40:32;102035.91;;;15.59;86.44
64886;BME280;51514;52.206;5.114;2023-05-23T00:42:59;102042.84;;;15.53;86.55
64886;BME280;51514;52.206;5.114;2023-05-23T00:45:25;102041.13;;;15.52;86.70
64886;BME280;51514;52.206;5.114;2023-05-23T00:47:50;102042.81;;;15.45;86.73
64886;BME280;51514;52.206;5.114;2023-05-23T00:50:17;102036.50;;;15.45;86.86
64886;BME280;51514;52.206;5.114;2023-05-23T00:52:44;102043.44;;;15.39;86.49
64886;BME280;51514;52.206;5.114;2023-05-23T00:55:10;102045.94;;;15.32;87.04
64886;BME280;51514;52.206;5.114;2023-05-23T00:57:37;102048.81;;;15.31;87.08
64886;BME280;51514;52.206;5.114;2023-05-23T01:00:14;102047.09;;;15.30;87.83
64886;BME280;51514;52.206;5.114;2023-05-23T01:02:46;102053.09;;;15.33;87.18
64886;BME280;51514;52.206;5.114;2023-05-23T01:05:13;102046.44;;;15.36;87.79
64886;BME280;51514;52.206;5.114;2023-05-23T01:07:41;102046.44;;;15.36;87.77
64886;BME280;51514;52.206;5.114;2023-05-23T01:10:08;102056.31;;;15.37;88.18
64886;BME280;51514;52.206;5.114;2023-05-23T01:15:18;102045.09;;;15.32;88.43
64886;BME280;51514;52.206;5.114;2023-05-23T01:18:07;102045.94;;;15.32;89.45
64886;BME280;51514;52.206;5.114;2023-05-23T01:20:37;102043.69;;;15.28;88.83
64886;BME280;51514;52.206;5.114;2023-05-23T01:28:51;102059.66;;;15.23;89.73
64886;BME280;51514;52.206;5.114;2023-05-23T01:31:19;102059.78;;;15.21;89.95
64886;BME280;51514;52.206;5.114;2023-05-23T01:33:47;102054.53;;;15.20;89.71
64886;BME280;51514;52.206;5.114;2023-05-23T01:36:14;102050.09;;;15.19;90.01
64886;BME280;51514;52.206;5.114;2023-05-23T01:38:40;102057.22;;;15.20;90.15
64886;BME280;51514;52.206;5.114;2023-05-23T01:41:05;102053.19;;;15.24;90.26
64886;BME280;51514;52.206;5.114;2023-05-23T01:43:30;102057.28;;;15.28;90.50
64886;BME280;51514;52.206;5.114;2023-05-23T01:45:56;102061.00;;;15.27;90.29
64886;BME280;51514;52.206;5.114;2023-05-23T01:48:25;102066.44;;;15.27;90.55
64886;BME280;51514;52.206;5.114;2023-05-23T01:50:52;102065.78;;;15.25;90.36
64886;BME280;51514;52.206;5.114;2023-05-23T01:53:20;102060.34;;;15.25;90.03
64886;BME280;51514;52.206;5.114;2023-05-23T01:55:46;102061.34;;;15.24;89.87
64886;BME280;51514;52.206;5.114;2023-05-23T01:58:12;102062.00;;;15.26;89.61
64886;BME280;51514;52.206;5.114;2023-05-23T02:00:38;102057.28;;;15.28;89.21
64886;BME280;51514;52.206;5.114;2023-05-23T02:03:03;102059.69;;;15.31;88.80
64886;BME280;51514;52.206;5.114;2023-05-23T02:05:30;102062.25;;;15.32;88.31
64886;BME280;51514;52.206;5.114;2023-05-23T02:07:55;102057.66;;;15.33;87.95
64886;BME280;51514;52.206;5.114;2023-05-23T02:10:21;102048.50;;;15.34;87.84
64886;BME280;51514;52.206;5.114;2023-05-23T02:12:46;102053.59;;;15.37;87.59
64886;BME280;51514;52.206;5.114;2023-05-23T02:15:11;102063.31;;;15.40;87.30
64886;BME280;51514;52.206;5.114;2023-05-23T02:17:37;102065.72;;;15.43;86.97
64886;BME280;51514;52.206;5.114;2023-05-23T02:20:06;102060.44;;;15.41;86.80
64886;BME280;51514;52.206;5.114;2023-05-23T02:22:32;102071.31;;;15.41;86.83
64886;BME280;51514;52.206;5.114;2023-05-23T02:24:57;102071.31;;;15.41;86.38
64886;BME280;51514;52.206;5.114;2023-05-23T02:27:22;102074.03;;;15.41;86.59
64886;BME280;51514;52.206;5.114;2023-05-23T02:29:48;102079.31;;;15.43;86.43
64886;BME280;51514;52.206;5.114;2023-05-23T02:32:13;102089.16;;;15.44;86.57
64886;BME280;51514;52.206;5.114;2023-05-23T02:34:39;102092.19;;;15.41;85.92
64886;BME280;51514;52.206;5.114;2023-05-23T02:37:04;102090.63;;;15.38;86.14
64886;BME280;51514;52.206;5.114;2023-05-23T02:39:29;102073.97;;;15.33;85.50
64886;BME280;51514;52.206;5.114;2023-05-23T02:41:55;102098.44;;;15.33;85.49
64886;BME280;51514;52.206;5.114;2023-05-23T02:44:20;102101.16;;;15.33;85.27
64886;BME280;51514;52.206;5.114;2023-05-23T02:46:45;102096.41;;;15.35;85.25
64886;BME280;51514;52.206;5.114;2023-05-23T02:49:11;102094.00;;;15.32;85.34
64886;BME280;51514;52.206;5.114;2023-05-23T02:51:36;102100.25;;;15.24;84.91
64886;BME280;51514;52.206;5.114;2023-05-23T02:54:02;102100.41;;;15.23;84.73
64886;BME280;51514;52.206;5.114;2023-05-23T02:56:27;102102.09;;;15.24;84.46
64886;BME280;51514;52.206;5.114;2023-05-23T02:58:53;102099.53;;;15.22;83.89
64886;BME280;51514;52.206;5.114;2023-05-23T03:01:18;102106.13;;;15.20;83.62
64886;BME280;51514;52.206;5.114;2023-05-23T03:03:44;102103.88;;;15.15;83.60
64886;BME280;51514;52.206;5.114;2023-05-23T03:06:09;102111.56;;;15.20;83.35
64886;BME280;51514;52.206;5.114;2023-05-23T03:08:39;102108.91;;;15.28;83.34
64886;BME280;51514;52.206;5.114;2023-05-23T03:11:04;102104.81;;;15.24;83.15
64886;BME280;51514;52.206;5.114;2023-05-23T03:13:29;102103.88;;;15.15;83.00
64886;BME280;51514;52.206;5.114;2023-05-23T03:15:55;102099.66;;;15.13;82.98
64886;BME280;51514;52.206;5.114;2023-05-23T03:18:20;102101.09;;;15.07;83.08
64886;BME280;51514;52.206;5.114;2023-05-23T03:20:45;102103.28;;;15.04;83.09
64886;BME280;51514;52.206;5.114;2023-05-23T03:23:11;102100.19;;;14.98;82.84
64886;BME280;51514;52.206;5.114;2023-05-23T03:25:36;102104.78;;;14.98;82.97
64886;BME280;51514;52.206;5.114;2023-05-23T03:28:01;102106.41;;;14.91;82.76
64886;BME280;51514;52.206;5.114;2023-05-23T03:30:27;102106.16;;;14.84;83.07
64886;BME280;51514;52.206;5.114;2023-05-23T03:32:52;102103.09;;;14.79;83.05
64886;BME280;51514;52.206;5.114;2023-05-23T03:35:17;102112.84;;;14.72;83.46
64886;BME280;51514;52.206;5.114;2023-05-23T03:37:43;102112.16;;;14.70;83.41
64886;BME280;51514;52.206;5.114;2023-05-23T03:40:08;102121.47;;;14.68;83.33
64886;BME280;51514;52.206;5.114;2023-05-23T03:42:35;102117.50;;;14.62;83.17
64886;BME280;51514;52.206;5.114;2023-05-23T03:45:00;102122.91;;;14.62;83.44
64886;BME280;51514;52.206;5.114;2023-05-23T03:47:26;102123.25;;;14.59;83.11
64886;BME280;51514;52.206;5.114;2023-05-23T03:49:51;102120.22;;;14.62;83.64
64886;BME280;51514;52.206;5.114;2023-05-23T03:52:16;102126.63;;;14.61;83.46
64886;BME280;51514;52.206;5.114;2023-05-23T03:54:42;102129.34;;;14.61;83.63
64886;BME280;51514;52.206;5.114;2023-05-23T03:57:07;102127.97;;;14.57;83.33
64886;BME280;51514;52.206;5.114;2023-05-23T03:59:33;102133.63;;;14.46;82.73
64886;BME280;51514;52.206;5.114;2023-05-23T04:01:59;102137.06;;;14.38;82.74
64886;BME280;51514;52.206;5.114;2023-05-23T04:04:25;102147.38;;;14.35;82.92
64886;BME280;51514;52.206;5.114;2023-05-23T04:06:51;102145.66;;;14.34;83.13
64886;BME280;51514;52.206;5.114;2023-05-23T04:09:16;102152.94;;;14.33;83.01
64886;BME280;51514;52.206;5.114;2023-05-23T04:11:42;102149.50;;;14.31;82.91
64886;BME280;51514;52.206;5.114;2023-05-23T04:14:08;102146.72;;;14.23;82.60
64886;BME280;51514;52.206;5.114;2023-05-23T04:16:34;102158.16;;;14.17;82.50
64886;BME280;51514;52.206;5.114;2023-05-23T04:19:00;102158.47;;;14.14;82.30
64886;BME280;51514;52.206;5.114;2023-05-23T04:21:26;102155.44;;;14.17;82.69
64886;BME280;51514;52.206;5.114;2023-05-23T04:23:52;102161.41;;;14.20;83.08
64886;BME280;51514;52.206;5.114;2023-05-23T04:26:17;102161.13;;;14.23;82.58
64886;BME280;51514;52.206;5.114;2023-05-23T04:28:42;102166.00;;;14.20;82.54
64886;BME280;51514;52.206;5.114;2023-05-23T04:31:10;102156.16;;;14.19;82.11
64886;BME280;51514;52.206;5.114;2023-05-23T04:33:36;102181.47;;;14.10;82.02
64886;BME280;51514;52.206;5.114;2023-05-23T04:36:02;102185.06;;;14.01;82.05
64886;BME280;51514;52.206;5.114;2023-05-23T04:38:27;102178.06;;;13.98;82.04
64886;BME280;51514;52.206;5.114;2023-05-23T04:40:53;102181.53;;;13.91;81.67
64886;BME280;51514;52.206;5.114;2023-05-23T04:43:18;102178.25;;;13.87;81.65
64886;BME280;51514;52.206;5.114;2023-05-23T04:45:45;102180.44;;;13.83;81.48
64886;BME280;51514;52.206;5.114;2023-05-23T04:48:10;102177.28;;;13.78;81.27
64886;BME280;51514;52.206;5.114;2023-05-23T04:50:37;102189.00;;;13.79;80.75
64886;BME280;51514;52.206;5.114;2023-05-23T04:53:04;102189.28;;;13.76;81.00
64886;BME280;51514;52.206;5.114;2023-05-23T04:55:30;102198.72;;;13.72;80.94
64886;BME280;51514;52.206;5.114;2023-05-23T04:57:56;102198.16;;;13.68;80.63
64886;BME280;51514;52.206;5.114;2023-05-23T05:00:21;102185.88;;;13.64;79.50
64886;BME280;51514;52.206;5.114;2023-05-23T05:02:47;102204.72;;;13.66;79.05
64886;BME280;51514;52.206;5.114;2023-05-23T05:05:13;102212.13;;;13.64;78.42
64886;BME280;51514;52.206;5.114;2023-05-23T05:07:41;102215.25;;;13.69;78.14
64886;BME280;51514;52.206;5.114;2023-05-23T05:10:07;102220.53;;;13.70;77.76
64886;BME280;51514;52.206;5.114;2023-05-23T05:12:33;102219.13;;;13.66;77.18
64886;BME280;51514;52.206;5.114;2023-05-23T05:14:58;102213.28;;;13.71;77.14
64886;BME280;51514;52.206;5.114;2023-05-23T05:17:24;102231.09;;;13.73;77.16
64886;BME280;51514;52.206;5.114;2023-05-23T05:19:51;102231.25;;;13.72;76.17
64886;BME280;51514;52.206;5.114;2023-05-23T05:22:16;102233.81;;;13.73;76.05
64886;BME280;51514;52.206;5.114;2023-05-23T05:24:42;102244.50;;;13.75;76.17
64886;BME280;51514;52.206;5.114;2023-05-23T05:27:07;102244.34;;;13.76;76.52
64886;BME280;51514;52.206;5.114;2023-05-23T05:29:33;102244.94;;;13.80;76.64
64886;BME280;51514;52.206;5.114;2023-05-23T05:31:59;102251.19;;;13.80;77.19
64886;BME280;51514;52.206;5.114;2023-05-23T05:34:25;102254.31;;;13.85;77.58
64886;BME280;51514;52.206;5.114;2023-05-23T05:36:50;102259.75;;;13.85;76.43
64886;BME280;51514;52.206;5.114;2023-05-23T05:39:21;102261.91;;;13.82;76.23
64886;BME280;51514;52.206;5.114;2023-05-23T05:41:47;102261.31;;;13.78;76.10
64886;BME280;51514;52.206;5.114;2023-05-23T05:44:12;102258.91;;;13.66;75.76
64886;BME280;51514;52.206;5.114;2023-05-23T05:46:38;102268.34;;;13.62;76.21
64886;BME280;51514;52.206;5.114;2023-05-23T05:49:03;102267.91;;;13.57;76.29
64886;BME280;51514;52.206;5.114;2023-05-23T05:51:28;102279.19;;;13.62;77.19
64886;BME280;51514;52.206;5.114;2023-05-23T05:53:54;102276.50;;;13.62;76.23
64886;BME280;51514;52.206;5.114;2023-05-23T05:56:19;102274.34;;;13.56;75.98
64886;BME280;51514;52.206;5.114;2023-05-23T05:58:46;102276.63;;;13.50;75.59
64886;BME280;51514;52.206;5.114;2023-05-23T06:01:11;102281.34;;;13.48;75.90
64886;BME280;51514;52.206;5.114;2023-05-23T06:03:37;102278.75;;;13.47;75.40
64886;BME280;51514;52.206;5.114;2023-05-23T06:06:02;102280.34;;;13.49;75.64
64886;BME280;51514;52.206;5.114;2023-05-23T06:08:28;102274.06;;;13.49;75.64
64886;BME280;51514;52.206;5.114;2023-05-23T06:10:53;102274.91;;;13.49;76.06
64886;BME280;51514;52.206;5.114;2023-05-23T06:13:20;102285.63;;;13.51;76.45
64886;BME280;51514;52.206;5.114;2023-05-23T06:15:46;102281.06;;;13.51;77.33
64886;BME280;51514;52.206;5.114;2023-05-23T06:18:11;102288.88;;;13.55;77.27
64886;BME280;51514;52.206;5.114;2023-05-23T06:20:37;102289.72;;;13.55;78.05
64886;BME280;51514;52.206;5.114;2023-05-23T06:23:02;102297.44;;;13.60;78.27
64886;BME280;51514;52.206;5.114;2023-05-23T06:25:30;102298.00;;;13.63;78.62
64886;BME280;51514;52.206;5.114;2023-05-23T06:27:55;102301.56;;;13.64;79.00
64886;BME280;51514;52.206;5.114;2023-05-23T06:30:20;102302.72;;;13.61;79.70
64886;BME280;51514;52.206;5.114;2023-05-23T06:32:47;102293.59;;;13.62;80.03
64886;BME280;51514;52.206;5.114;2023-05-23T06:35:12;102291.75;;;13.63;80.64
64886;BME280;51514;52.206;5.114;2023-05-23T06:37:38;102297.00;;;13.64;81.24
64886;BME280;51514;52.206;5.114;2023-05-23T06:40:07;102287.47;;;13.60;81.60
64886;BME280;51514;52.206;5.114;2023-05-23T06:42:33;102299.72;;;13.55;82.42
64886;BME280;51514;52.206;5.114;2023-05-23T06:44:58;102296.59;;;13.49;83.15
64886;BME280;51514;52.206;5.114;2023-05-23T06:47:24;102297.16;;;13.43;82.82
64886;BME280;51514;52.206;5.114;2023-05-23T06:49:49;102299.59;;;13.37;82.24
64886;BME280;51514;52.206;5.114;2023-05-23T06:52:14;102301.28;;;13.38;81.84
64886;BME280;51514;52.206;5.114;2023-05-23T06:54:40;102306.56;;;13.39;81.12
64886;BME280;51514;52.206;5.114;2023-05-23T06:57:05;102306.44;;;13.41;80.42
64886;BME280;51514;52.206;5.114;2023-05-23T06:59:31;102313.25;;;13.45;79.36
64886;BME280;51514;52.206;5.114;2023-05-23T07:01:56;102316.56;;;13.48;78.68
64886;BME280;51514;52.206;5.114;2023-05-23T07:04:21;102311.56;;;13.53;78.56
64886;BME280;51514;52.206;5.114;2023-05-23T07:06:47;102322.56;;;13.62;77.41
64886;BME280;51514;52.206;5.114;2023-05-23T07:09:12;102313.56;;;13.61;76.65
64886;BME280;51514;52.206;5.114;2023-05-23T07:11:37;102314.84;;;13.67;75.50
64886;BME280;51514;52.206;5.114;2023-05-23T07:14:05;102321.97;;;13.68;74.72
64886;BME280;51514;52.206;5.114;2023-05-23T07:16:31;102318.00;;;13.72;74.73
64886;BME280;51514;52.206;5.114;2023-05-23T07:18:57;102327.84;;;13.73;73.94
64886;BME280;51514;52.206;5.114;2023-05-23T07:21:22;102322.09;;;13.76;73.54
64886;BME280;51514;52.206;5.114;2023-05-23T07:23:47;102320.84;;;13.80;73.67
64886;BME280;51514;52.206;5.114;2023-05-23T07:26:13;102321.13;;;13.77;72.71
64886;BME280;51514;52.206;5.114;2023-05-23T07:28:38;102327.53;;;13.76;72.59
64886;BME280;51514;52.206;5.114;2023-05-23T07:31:04;102329.81;;;13.80;72.72
64886;BME280;51514;52.206;5.114;2023-05-23T07:33:29;102322.56;;;13.81;72.50
64886;BME280;51514;52.206;5.114;2023-05-23T07:35:55;102328.38;;;13.86;72.55
64886;BME280;51514;52.206;5.114;2023-05-23T07:38:20;102332.50;;;14.00;72.77
64886;BME280;51514;52.206;5.114;2023-05-23T07:40:46;102330.78;;;14.08;71.81
64886;BME280;51514;52.206;5.114;2023-05-23T07:43:11;102329.34;;;14.14;71.98
64886;BME280;51514;52.206;5.114;2023-05-23T07:45:37;102334.75;;;14.23;71.86
64886;BME280;51514;52.206;5.114;2023-05-23T07:48:02;102335.88;;;14.31;70.49
64886;BME280;51514;52.206;5.114;2023-05-23T07:50:27;102340.03;;;14.35;70.50
64886;BME280;51514;52.206;5.114;2023-05-23T07:52:53;102335.03;;;14.40;69.79
64886;BME280;51514;52.206;5.114;2023-05-23T07:55:19;102335.72;;;14.42;69.34
64886;BME280;51514;52.206;5.114;2023-05-23T07:57:45;102331.03;;;14.44;69.19
64886;BME280;51514;52.206;5.114;2023-05-23T08:00:11;102335.16;;;14.48;69.12
64886;BME280;51514;52.206;5.114;2023-05-23T08:02:36;102342.69;;;14.54;69.20
64886;BME280;51514;52.206;5.114;2023-05-23T08:05:01;102338.94;;;14.65;68.52
64886;BME280;51514;52.206;5.114;2023-05-23T08:07:27;102338.16;;;14.82;68.26
64886;BME280;51514;52.206;5.114;2023-05-23T08:09:52;102338.97;;;14.92;68.32
64886;BME280;51514;52.206;5.114;2023-05-23T08:12:18;102347.66;;;14.95;67.18
64886;BME280;51514;52.206;5.114;2023-05-23T08:14:43;102344.09;;;14.95;65.63
64886;BME280;51514;52.206;5.114;2023-05-23T08:17:11;102347.09;;;15.02;65.03
64886;BME280;51514;52.206;5.114;2023-05-23T08:19:37;102348.59;;;15.14;64.76
64886;BME280;51514;52.206;5.114;2023-05-23T08:22:02;102352.47;;;15.29;66.09
64886;BME280;51514;52.206;5.114;2023-05-23T08:24:29;102350.44;;;15.58;66.14
64886;BME280;51514;52.206;5.114;2023-05-23T08:26:54;102365.13;;;15.83;64.02
64886;BME280;51514;52.206;5.114;2023-05-23T08:29:20;102365.69;;;15.87;64.59
64886;BME280;51514;52.206;5.114;2023-05-23T08:31:46;102359.69;;;15.83;63.70
64886;BME280;51514;52.206;5.114;2023-05-23T08:34:11;102367.22;;;15.72;63.58
64886;BME280;51514;52.206;5.114;2023-05-23T08:36:38;102357.28;;;15.62;63.68
64886;BME280;51514;52.206;5.114;2023-05-23T08:39:04;102360.47;;;15.58;63.50
64886;BME280;51514;52.206;5.114;2023-05-23T08:41:29;102364.66;;;15.70;63.88
64886;BME280;51514;52.206;5.114;2023-05-23T08:43:58;102368.50;;;15.77;61.93
64886;BME280;51514;52.206;5.114;2023-05-23T08:46:25;102364.84;;;15.86;61.00
64886;BME280;51514;52.206;5.114;2023-05-23T08:48:52;102361.25;;;15.86;61.10
64886;BME280;51514;52.206;5.114;2023-05-23T08:51:21;102372.06;;;15.78;62.05
64886;BME280;51514;52.206;5.114;2023-05-23T08:53:48;102383.03;;;15.68;62.75
64886;BME280;51514;52.206;5.114;2023-05-23T08:56:15;102384.19;;;15.65;63.06
64886;BME280;51514;52.206;5.114;2023-05-23T08:58:42;102377.97;;;15.55;62.92
64886;BME280;51514;52.206;5.114;2023-05-23T09:01:10;102382.25;;;15.48;61.02
64886;BME280;51514;52.206;5.114;2023-05-23T09:03:37;102381.91;;;15.61;61.37
64886;BME280;51514;52.206;5.114;2023-05-23T09:06:07;102383.72;;;15.88;60.80
64886;BME280;51514;52.206;5.114;2023-05-23T09:08:33;102393.81;;;15.95;60.79
64886;BME280;51514;52.206;5.114;2023-05-23T09:10:59;102400.19;;;16.04;61.86
64886;BME280;51514;52.206;5.114;2023-05-23T09:13:27;102391.22;;;16.12;59.33
64886;BME280;51514;52.206;5.114;2023-05-23T09:16:09;102397.63;;;16.20;59.04
64886;BME280;51514;52.206;5.114;2023-05-23T09:18:40;102399.03;;;16.06;59.22
64886;BME280;51514;52.206;5.114;2023-05-23T09:21:10;102401.13;;;15.95;59.68
64886;BME280;51514;52.206;5.114;2023-05-23T09:23:40;102410.13;;;16.13;60.22
64886;BME280;51514;52.206;5.114;2023-05-23T09:26:09;102409.25;;;16.13;60.54
64886;BME280;51514;52.206;5.114;2023-05-23T09:28:37;102408.81;;;16.17;60.68
64886;BME280;51514;52.206;5.114;2023-05-23T09:31:05;102410.47;;;16.36;60.75
64886;BME280;51514;52.206;5.114;2023-05-23T09:33:48;102410.72;;;16.42;58.97
64886;BME280;51514;52.206;5.114;2023-05-23T09:36:14;102412.91;;;16.39;59.43
64886;BME280;51514;52.206;5.114;2023-05-23T09:38:41;102417.72;;;16.27;59.43
64886;BME280;51514;52.206;5.114;2023-05-23T09:41:08;102430.72;;;16.16;59.71
64886;BME280;51514;52.206;5.114;2023-05-23T09:43:37;102422.50;;;16.08;60.26
64886;BME280;51514;52.206;5.114;2023-05-23T09:46:07;102423.28;;;16.00;58.36
64886;BME280;51514;52.206;5.114;2023-05-23T09:48:33;102416.50;;;16.04;58.76
64886;BME280;51514;52.206;5.114;2023-05-23T09:51:03;102415.72;;;16.12;58.59
64886;BME280;51514;52.206;5.114;2023-05-23T09:53:28;102421.00;;;16.13;58.40
64886;BME280;51514;52.206;5.114;2023-05-23T09:55:54;102414.41;;;16.16;58.27
64886;BME280;51514;52.206;5.114;2023-05-23T09:58:22;102418.69;;;16.18;58.67
64886;BME280;51514;52.206;5.114;2023-05-23T10:00:49;102422.09;;;16.20;59.03
64886;BME280;51514;52.206;5.114;2023-05-23T10:03:21;102438.03;;;16.15;60.04
64886;BME280;51514;52.206;5.114;2023-05-23T10:05:49;102421.84;;;16.14;59.85
64886;BME280;51514;52.206;5.114;2023-05-23T10:08:31;102437.66;;;16.10;59.06
64886;BME280;51514;52.206;5.114;2023-05-23T10:13:43;102433.38;;;16.08;58.10
64886;BME280;51514;52.206;5.114;2023-05-23T10:16:17;102431.88;;;16.13;58.23
64886;BME280;51514;52.206;5.114;2023-05-23T10:18:44;102431.28;;;16.19;58.78
64886;BME280;51514;52.206;5.114;2023-05-23T10:21:18;102440.16;;;16.21;57.50
64886;BME280;51514;52.206;5.114;2023-05-23T10:23:45;102434.72;;;16.21;59.63
64886;BME280;51514;52.206;5.114;2023-05-23T10:26:12;102440.59;;;16.17;58.65
64886;BME280;51514;52.206;5.114;2023-05-23T10:28:39;102435.56;;;16.04;58.96
64886;BME280;51514;52.206;5.114;2023-05-23T10:31:05;102444.28;;;15.90;59.49
64886;BME280;51514;52.206;5.114;2023-05-23T10:33:35;102449.59;;;15.82;60.07
64886;BME280;51514;52.206;5.114;2023-05-23T10:36:09;102451.94;;;15.77;60.54
64886;BME280;51514;52.206;5.114;2023-05-23T10:38:47;102446.81;;;15.74;61.65
64886;BME280;51514;52.206;5.114;2023-05-23T10:41:24;102441.38;;;15.74;60.74
64886;BME280;51514;52.206;5.114;2023-05-23T10:44:08;102448.16;;;15.87;59.98
64886;BME280;51514;52.206;5.114;2023-05-23T10:46:50;102444.34;;;15.98;60.43
64886;BME280;51514;52.206;5.114;2023-05-23T10:49:20;102450.09;;;15.95;59.43
64886;BME280;51514;52.206;5.114;2023-05-23T10:51:49;102448.00;;;15.89;58.25
64886;BME280;51514;52.206;5.114;2023-05-23T10:54:17;102443.88;;;15.85;58.30
64886;BME280;51514;52.206;5.114;2023-05-23T10:56:44;102445.66;;;15.94;58.20
64886;BME280;51514;52.206;5.114;2023-05-23T10:59:19;102446.59;;;16.02;57.57
64886;BME280;51514;52.206;5.114;2023-05-23T11:01:45;102446.13;;;16.07;58.27
64886;BME280;51514;52.206;5.114;2023-05-23T11:04:10;102442.63;;;16.15;57.93
64886;BME280;51514;52.206;5.114;2023-05-23T11:06:43;102451.09;;;16.12;57.74
64886;BME280;51514;52.206;5.114;2023-05-23T11:09:15;102452.50;;;16.16;57.85
64886;BME280;51514;52.206;5.114;2023-05-23T11:12:01;102444.94;;;16.27;57.60
64886;BME280;51514;52.206;5.114;2023-05-23T11:16:57;102449.16;;;16.39;57.90
64886;BME280;51514;52.206;5.114;2023-05-23T11:19:27;102453.81;;;16.29;58.13
64886;BME280;51514;52.206;5.114;2023-05-23T11:21:55;102450.69;;;16.24;59.05
64886;BME280;51514;52.206;5.114;2023-05-23T11:24:21;102451.09;;;16.29;58.81
64886;BME280;51514;52.206;5.114;2023-05-23T11:26:59;102450.84;;;16.40;59.25
64886;BME280;51514;52.206;5.114;2023-05-23T11:29:28;102440.19;;;16.65;57.70
64886;BME280;51514;52.206;5.114;2023-05-23T11:31:57;102449.56;;;16.70;57.60
64886;BME280;51514;52.206;5.114;2023-05-23T11:34:24;102445.06;;;16.61;58.70
64886;BME280;51514;52.206;5.114;2023-05-23T11:36:54;102459.31;;;16.73;58.28
64886;BME280;51514;52.206;5.114;2023-05-23T11:39:19;102454.75;;;16.82;56.55
64886;BME280;51514;52.206;5.114;2023-05-23T11:41:58;102457.38;;;16.91;55.88
64886;BME280;51514;52.206;5.114;2023-05-23T11:44:24;102450.25;;;16.98;55.33
64886;BME280;51514;52.206;5.114;2023-05-23T11:47:02;102448.56;;;16.97;55.63
64886;BME280;51514;52.206;5.114;2023-05-23T11:49:34;102451.03;;;16.83;55.41
64886;BME280;51514;52.206;5.114;2023-05-23T11:52:01;102451.75;;;16.67;55.88
64886;BME280;51514;52.206;5.114;2023-05-23T11:54:26;102454.91;;;16.80;57.22
64886;BME280;51514;52.206;5.114;2023-05-23T11:56:53;102449.19;;;16.91;55.47
64886;BME280;51514;52.206;5.114;2023-05-23T11:59:23;102453.84;;;16.99;55.33
64886;BME280;51514;52.206;5.114;2023-05-23T12:01:50;102447.94;;;17.11;54.29
64886;BME280;51514;52.206;5.114;2023-05-23T12:04:15;102442.72;;;17.18;53.66
64886;BME280;51514;52.206;5.114;2023-05-23T12:06:41;102454.22;;;17.04;51.49
64886;BME280;51514;52.206;5.114;2023-05-23T12:09:10;102454.41;;;17.10;52.17
64886;BME280;51514;52.206;5.114;2023-05-23T12:11:38;102463.28;;;17.12;52.77
64886;BME280;51514;52.206;5.114;2023-05-23T12:14:04;102468.69;;;17.04;53.30
64886;BME280;51514;52.206;5.114;2023-05-23T12:16:35;102474.88;;;16.89;54.09
64886;BME280;51514;52.206;5.114;2023-05-23T12:19:02;102465.59;;;16.73;54.46
64886;BME280;51514;52.206;5.114;2023-05-23T12:24:20;102464.53;;;16.92;53.90
64886;BME280;51514;52.206;5.114;2023-05-23T12:26:53;102468.06;;;16.85;52.94
64886;BME280;51514;52.206;5.114;2023-05-23T12:29:20;102464.25;;;16.77;53.02
64886;BME280;51514;52.206;5.114;2023-05-23T12:31:49;102472.63;;;16.76;52.26
64886;BME280;51514;52.206;5.114;2023-05-23T12:34:16;102464.38;;;16.94;53.32
64886;BME280;51514;52.206;5.114;2023-05-23T12:36:41;102468.53;;;17.06;53.45
64886;BME280;51514;52.206;5.114;2023-05-23T12:39:08;102473.75;;;17.25;53.53
64886;BME280;51514;52.206;5.114;2023-05-23T12:41:33;102465.53;;;17.51;53.67
64886;BME280;51514;52.206;5.114;2023-05-23T12:43:59;102468.03;;;17.44;51.65
64886;BME280;51514;52.206;5.114;2023-05-23T12:46:26;102464.56;;;17.26;51.99
64886;BME280;51514;52.206;5.114;2023-05-23T12:48:52;102469.75;;;17.11;52.48
64886;BME280;51514;52.206;5.114;2023-05-23T12:51:18;102477.84;;;16.95;53.30
64886;BME280;51514;52.206;5.114;2023-05-23T12:53:44;102477.38;;;16.74;54.52
64886;BME280;51514;52.206;5.114;2023-05-23T12:56:10;102474.47;;;16.75;54.38
64886;BME280;51514;52.206;5.114;2023-05-23T12:58:35;102469.25;;;16.82;54.79
64886;BME280;51514;52.206;5.114;2023-05-23T13:01:01;102468.97;;;16.93;54.15
64886;BME280;51514;52.206;5.114;2023-05-23T13:03:27;102475.31;;;17.02;53.61
64886;BME280;51514;52.206;5.114;2023-05-23T13:05:53;102473.91;;;17.24;53.29